Time;durP1;ratioP1;P1;durP2;ratioP2;P2;SDS_P1;SDS_P2;PMS_P1;PMS_P2;Temp;Humidity;BMP_temperature;BMP_pressure;BME280_temperature;BME280_humidity;BME280_pressure;Samples;Min_cycle;Max_cycle;Signal;HPM_P1;HPM_P2
2023/06/12 00:01:51;;;;;;;7.22;4.00;;;16.20;99.90;;;-144.05;49.57;56810.59;5052962;28;20025;-81
2023/06/12 00:04:17;;;;;;;6.03;4.13;;;16.10;99.90;;;-144.05;49.66;56814.84;5036510;28;20078;-82
2023/06/12 00:06:43;;;;;;;5.50;4.53;;;15.90;99.90;;;-144.05;49.54;56789.38;5036375;28;20033;-83
2023/06/12 00:09:10;;;;;;;7.25;4.40;;;15.90;99.90;;;-144.05;48.80;56778.75;5036547;28;20029;-83
2023/06/12 00:11:39;;;;;;;5.60;4.35;;;15.90;99.90;;;-144.05;48.50;56795.75;5052813;28;20031;-83
2023/06/12 00:14:05;;;;;;;6.38;4.50;;;15.90;99.90;;;-144.05;47.90;56804.22;5053964;28;20029;-81
2023/06/12 00:16:31;;;;;;;5.53;4.38;;;15.90;99.90;;;-144.05;48.30;56778.75;5052662;28;20032;-82
2023/06/12 00:18:57;;;;;;;5.50;4.55;;;15.80;99.90;;;-144.05;49.50;56789.38;5036150;28;20029;-83
2023/06/12 00:21:23;;;;;;;5.95;4.40;;;15.80;99.90;;;-144.05;49.77;56780.88;5054314;28;20107;-82
2023/06/12 00:23:49;;;;;;;6.35;4.50;;;15.70;99.90;;;-144.05;50.36;56751.13;5052842;28;20025;-83
2023/06/12 00:26:15;;;;;;;6.43;4.63;;;15.70;99.90;;;-144.05;50.65;56789.38;5036192;28;20036;-82
2023/06/12 00:28:41;;;;;;;8.00;4.47;;;15.50;99.90;;;-144.05;51.09;56799.97;5036023;28;20368;-82
2023/06/12 00:31:07;;;;;;;5.93;4.63;;;15.50;99.90;;;-144.05;51.28;56808.47;5035949;28;20112;-83
2023/06/12 00:33:33;;;;;;;7.82;3.97;;;15.40;99.90;;;-144.05;51.18;56778.75;5052980;28;20037;-82
2023/06/12 00:35:58;;;;;;;6.90;4.47;;;15.30;99.90;;;-144.05;51.41;56785.13;5053989;28;20037;-83
2023/06/12 00:38:24;;;;;;;7.65;5.05;;;15.20;99.90;;;-144.05;51.78;56778.75;5036017;28;20029;-84
2023/06/12 00:40:51;;;;;;;7.22;4.68;;;15.20;99.90;;;-144.05;52.27;56774.50;5036223;28;20458;-81
2023/06/12 00:43:17;;;;;;;6.65;5.18;;;15.10;99.90;;;-144.05;53.14;56797.88;5054031;28;20313;-83
2023/06/12 00:45:43;;;;;;;8.55;5.05;;;15.10;99.90;;;-144.05;52.79;56791.50;5053900;28;20048;-83
2023/06/12 00:48:09;;;;;;;7.10;4.05;;;15.20;99.90;;;-144.05;52.94;56795.75;5053577;28;20025;-83
2023/06/12 00:50:39;;;;;;;6.93;4.55;;;15.20;99.90;;;-144.05;53.26;56797.88;5036478;28;20040;-81
2023/06/12 00:53:05;;;;;;;5.18;4.40;;;15.10;99.90;;;-144.05;53.60;56808.47;5035947;28;20025;-80
2023/06/12 00:55:32;;;;;;;6.47;4.20;;;15.00;99.90;;;-144.05;54.08;56789.38;5035574;28;20029;-81
2023/06/12 00:58:01;;;;;;;6.38;4.70;;;14.90;99.90;;;-144.05;54.35;56791.50;5035867;28;20041;-82
2023/06/12 01:00:27;;;;;;;6.30;4.60;;;14.90;99.90;;;-144.05;54.82;56791.50;5035987;28;20033;-83
2023/06/12 01:03:04;;;;;;;9.23;4.78;;;14.80;99.90;;;-144.05;55.06;56799.97;5035487;28;20036;-81
2023/06/12 01:05:40;;;;;;;6.75;4.95;;;14.70;99.90;;;-144.05;55.37;56810.59;5035213;28;20029;-82
2023/06/12 01:08:37;;;;;;;6.88;4.75;;;14.60;99.90;;;-144.05;56.15;56768.13;5052953;28;20035;-83
2023/06/12 01:11:12;;;;;;;6.72;4.65;;;14.50;99.90;;;-144.05;56.46;56780.88;5053486;28;20037;-82
2023/06/12 01:13:38;;;;;;;8.77;5.53;;;14.50;99.90;;;-144.05;56.58;56780.88;5035468;28;20429;-83
2023/06/12 01:16:05;;;;;;;6.50;5.13;;;14.40;99.90;;;-144.05;56.95;56791.50;5047276;28;20025;-84
2023/06/12 01:18:33;;;;;;;7.05;5.35;;;14.30;99.90;;;-144.05;56.95;56778.75;5046895;28;20079;-83
2023/06/12 01:21:09;;;;;;;6.78;5.20;;;14.30;99.90;;;-144.05;57.04;56776.63;5035266;28;20094;-83
2023/06/12 01:24:21;;;;;;;;;;;14.20;99.90;;;-144.05;57.22;56806.34;5035676;28;20032;-83
2023/06/12 01:27:27;;;;;;;6.80;5.32;;;14.20;99.90;;;-144.05;57.18;56791.50;5035423;28;19958;-84
2023/06/12 01:30:54;;;;;;;8.07;5.00;;;14.20;99.90;;;-144.05;57.50;56770.25;5052857;28;20029;-83
2023/06/12 01:33:32;;;;;;;10.07;5.80;;;14.30;99.90;;;-144.05;57.46;56789.38;5034948;28;20064;-84
2023/06/12 01:36:02;;;;;;;8.23;5.80;;;14.30;99.90;;;-144.05;57.03;56772.38;5035257;28;20037;-81
2023/06/12 01:38:34;;;;;;;7.20;5.07;;;14.30;99.90;;;-144.05;57.17;56791.50;5035841;28;20033;-83
2023/06/12 01:41:05;;;;;;;6.57;4.70;;;14.30;99.90;;;-144.05;57.39;56787.25;5035992;28;20208;-83
2023/06/12 01:43:31;;;;;;;7.20;4.90;;;14.20;99.90;;;-144.05;57.66;56780.88;5052211;28;20045;-83
2023/06/12 01:45:57;;;;;;;8.52;5.40;;;14.20;99.90;;;-144.05;58.08;56774.50;5035630;28;20494;-84
2023/06/12 01:48:22;;;;;;;8.88;5.22;;;14.20;99.90;;;-144.05;58.24;56787.25;5052257;28;20072;-84
2023/06/12 01:50:48;;;;;;;8.85;5.70;;;14.20;99.90;;;-144.05;58.14;56766.00;5035417;28;20064;-85
2023/06/12 01:53:15;;;;;;;7.43;5.22;;;14.40;99.90;;;-144.05;57.51;56791.50;5037502;28;20667;-85
2023/06/12 01:55:42;;;;;;;6.50;4.90;;;14.50;99.90;;;-144.05;57.83;56785.13;5037536;28;20036;-85
2023/06/12 01:58:08;;;;;;;7.97;4.72;;;14.40;99.90;;;-144.05;58.19;56778.75;5054305;28;20052;-81
2023/06/12 02:00:37;;;;;;;6.38;4.93;;;14.20;99.90;;;-144.05;58.80;56787.25;5077294;28;20047;-81
2023/06/12 02:03:04;;;;;;;6.97;5.50;;;14.10;99.90;;;-144.05;59.21;56795.75;5059498;28;20132;-80
2023/06/12 02:05:30;;;;;;;6.85;5.30;;;14.00;99.90;;;-144.05;60.09;56783.00;5077257;28;20021;-81
2023/06/12 02:07:56;;;;;;;10.23;5.53;;;13.90;99.90;;;-144.05;60.79;56778.75;5037445;28;20037;-81
2023/06/12 02:10:21;;;;;;;6.93;5.28;;;13.80;99.90;;;-144.05;61.34;56791.50;5052218;28;20116;-81
2023/06/12 02:12:47;;;;;;;8.68;5.63;;;13.70;99.90;;;-144.05;61.37;56783.00;5034090;28;20045;-82
2023/06/12 02:15:13;;;;;;;6.00;5.10;;;13.70;99.90;;;-144.05;61.50;56755.38;5034079;28;20075;-82
2023/06/12 02:17:39;;;;;;;8.02;5.32;;;13.60;99.90;;;-144.05;61.64;56772.38;5033564;28;20035;-82
2023/06/12 02:20:07;;;;;;;8.80;5.80;;;13.60;99.90;;;-144.05;61.93;56772.38;5033786;28;20021;-84
2023/06/12 02:22:33;;;;;;;9.73;5.47;;;13.50;99.90;;;-144.05;62.27;56793.63;5033852;28;20354;-81
2023/06/12 02:24:59;;;;;;;9.82;5.43;;;13.50;99.90;;;-144.05;62.28;56787.25;5033853;28;20033;-82
2023/06/12 02:27:25;;;;;;;8.52;5.75;;;13.50;99.90;;;-144.05;61.92;56749.00;5033966;28;20470;-84
2023/06/12 02:29:51;;;;;;;9.18;4.82;;;13.50;99.90;;;-144.05;62.19;56793.63;5033534;28;20048;-81
2023/06/12 02:32:17;;;;;;;9.32;5.47;;;13.50;99.90;;;-144.05;62.18;56772.38;5033922;28;20427;-84
2023/06/12 02:34:43;;;;;;;6.82;5.35;;;13.50;99.90;;;-144.05;62.79;56802.09;5033757;28;20040;-84
2023/06/12 02:37:09;;;;;;;6.05;5.20;;;13.50;99.90;;;-144.05;62.75;56755.38;5051581;28;20501;-83
2023/06/12 02:39:35;;;;;;;7.85;5.03;;;13.40;99.90;;;-144.05;63.04;56780.88;5050443;28;20055;-82
2023/06/12 02:42:01;;;;;;;14.35;5.97;;;13.50;99.90;;;-144.05;63.12;56791.50;5051504;28;20045;-83
2023/06/12 02:44:27;;;;;;;11.00;5.45;;;13.40;99.90;;;-144.05;63.18;56793.63;5033589;28;20124;-82
2023/06/12 02:46:59;;;;;;;12.45;5.95;;;13.40;99.90;;;-144.05;63.55;56795.75;5050129;28;20079;-81
2023/06/12 02:49:30;;;;;;;8.57;5.22;;;13.30;99.90;;;-144.05;63.65;56759.63;5051798;28;20111;-82
2023/06/12 02:51:57;;;;;;;7.43;5.68;;;13.40;99.90;;;-144.05;63.68;56757.50;5033760;28;20044;-82
2023/06/12 02:54:28;;;;;;;8.93;5.82;;;13.30;99.90;;;-144.05;63.65;56787.25;5051244;28;20036;-82
2023/06/12 02:56:54;;;;;;;10.80;5.75;;;13.30;99.90;;;-144.05;63.92;56778.75;5050308;28;20398;-82
2023/06/12 02:59:23;;;;;;;8.98;5.72;;;13.20;99.90;;;-144.05;64.08;56776.63;5033474;28;20025;-83
2023/06/12 03:01:50;;;;;;;8.45;5.85;;;13.20;99.90;;;-144.05;64.48;56768.13;5033596;28;20056;-85
2023/06/12 03:04:20;;;;;;;8.63;5.93;;;13.20;99.90;;;-144.05;64.47;56797.88;5054743;28;20027;-81
2023/06/12 03:06:53;;;;;;;10.02;5.25;;;13.20;99.90;;;-144.05;64.49;56763.88;5054870;28;20462;-84
2023/06/12 03:09:23;;;;;;;11.55;5.57;;;13.20;99.90;;;-144.05;64.69;56780.88;5051367;28;20025;-82
2023/06/12 03:11:53;;;;;;;18.52;6.30;;;13.30;99.90;;;-144.05;64.82;56812.72;5033616;28;20057;-82
2023/06/12 03:14:24;;;;;;;21.08;6.47;;;13.20;99.90;;;-144.05;64.85;56791.50;5033320;28;20083;-82
2023/06/12 03:16:50;;;;;;;12.15;6.18;;;13.20;99.90;;;-144.05;65.06;56783.00;5033618;28;20021;-81
2023/06/12 03:19:17;;;;;;;20.75;7.18;;;13.20;99.90;;;-144.05;65.11;56797.88;5051994;28;20394;-83
2023/06/12 03:21:43;;;;;;;14.48;6.25;;;13.20;99.90;;;-144.05;65.04;56770.25;5037438;28;20379;-84
2023/06/12 03:24:09;;;;;;;13.65;6.25;;;13.20;99.90;;;-144.05;65.37;56799.97;5037617;28;20539;-83
2023/06/12 03:26:36;;;;;;;12.40;6.18;;;13.20;99.90;;;-144.05;65.42;56768.13;5054305;28;20475;-81
2023/06/12 03:29:02;;;;;;;9.85;6.38;;;13.20;99.90;;;-144.05;65.84;56780.88;5037172;28;20029;-81
2023/06/12 03:31:29;;;;;;;13.82;6.10;;;13.20;99.90;;;-144.05;65.26;56780.88;5037567;28;20090;-83
2023/06/12 03:33:56;;;;;;;11.57;5.63;;;13.20;99.90;;;-144.05;65.27;56787.25;5053693;28;20029;-83
2023/06/12 03:36:28;;;;;;;8.20;5.93;;;13.10;99.90;;;-144.05;65.63;56776.63;5037262;28;20021;-81
2023/06/12 03:38:55;;;;;;;12.32;6.30;;;13.10;99.90;;;-144.05;65.72;56806.34;5037023;28;20170;-83
2023/06/12 03:41:22;;;;;;;10.25;5.78;;;13.20;99.90;;;-144.05;65.50;56772.38;5036866;28;20487;-83
2023/06/12 03:43:49;;;;;;;9.05;5.72;;;13.30;99.90;;;-144.05;65.49;56783.00;5036802;28;20059;-79
2023/06/12 03:46:15;;;;;;;8.75;6.25;;;13.40;99.90;;;-144.05;65.59;56780.88;5054940;28;20025;-82
2023/06/12 03:48:41;;;;;;;8.63;6.45;;;13.40;99.90;;;-144.05;65.65;56761.75;5037008;28;20029;-82
2023/06/12 03:51:07;;;;;;;12.32;6.22;;;13.50;99.90;;;-144.05;65.56;56789.38;5053440;28;20536;-82
2023/06/12 03:53:33;;;;;;;9.95;6.40;;;13.50;99.90;;;-144.05;65.67;56783.00;5053300;28;20087;-82
2023/06/12 03:55:59;;;;;;;17.73;7.07;;;13.50;99.90;;;-144.05;65.43;56785.13;5053332;28;20418;-83
2023/06/12 03:58:25;;;;;;;12.07;5.75;;;13.70;99.90;;;-144.05;65.34;56766.00;5057729;28;20047;-84
2023/06/12 04:00:52;;;;;;;7.85;5.80;;;13.60;99.90;;;-144.05;65.26;56791.50;5056351;28;20456;-82
2023/06/12 04:03:20;;;;;;;7.22;5.72;;;13.60;99.90;;;-144.05;65.40;56759.63;5038957;28;20166;-82
2023/06/12 04:05:48;;;;;;;9.82;6.57;;;13.60;99.90;;;-144.05;65.26;56783.00;5055883;28;20032;-84
2023/06/12 04:08:14;;;;;;;7.78;5.57;;;13.70;99.90;;;-144.05;64.96;56761.75;5037386;28;20044;-83
2023/06/12 04:10:40;;;;;;;9.27;6.18;;;13.70;99.90;;;-144.05;65.15;56787.25;5038831;28;20052;-81
2023/06/12 04:13:06;;;;;;;8.13;5.28;;;13.70;99.90;;;-144.05;65.29;56776.63;5039559;28;20033;-82
2023/06/12 04:15:32;;;;;;;14.27;6.25;;;13.70;99.90;;;-144.05;65.50;56755.38;5038777;28;20497;-84
2023/06/12 04:17:58;;;;;;;65.97;11.93;;;13.70;99.90;;;-144.05;65.41;56799.97;5038527;28;20061;-80
2023/06/12 04:20:26;;;;;;;53.50;9.13;;;13.80;99.90;;;-144.05;65.49;56776.63;5039052;28;20501;-82
2023/06/12 04:22:56;;;;;;;57.92;10.43;;;13.80;99.90;;;-144.05;65.60;56780.88;5038624;28;20032;-82
2023/06/12 04:25:25;;;;;;;53.22;9.60;;;13.90;99.90;;;-144.05;65.27;56802.09;5038799;28;20394;-82
2023/06/12 04:27:52;;;;;;;28.77;7.50;;;13.90;99.90;;;-144.05;64.99;56783.00;5055569;28;20280;-83
2023/06/12 04:30:21;;;;;;;26.95;7.63;;;14.00;99.90;;;-144.05;64.81;56778.75;5056021;28;20021;-84
2023/06/12 04:32:48;;;;;;;13.68;5.97;;;14.10;99.90;;;-144.05;64.88;56744.75;5038398;28;20025;-83
2023/06/12 04:35:16;;;;;;;13.05;6.10;;;14.20;99.90;;;-144.05;64.48;56816.97;5038530;28;20025;-81
2023/06/12 04:37:43;;;;;;;17.75;6.25;;;14.40;99.90;;;-144.05;65.04;56753.25;5038362;28;20044;-83
2023/06/12 04:40:11;;;;;;;12.02;6.10;;;14.60;99.90;;;-144.05;65.31;56776.63;5038390;28;20048;-83
2023/06/12 04:42:38;;;;;;;8.63;5.80;;;14.80;99.90;;;-144.05;65.14;56778.75;5038017;28;20029;-82
2023/06/12 04:45:05;;;;;;;11.60;5.72;;;14.90;99.90;;;-144.05;62.70;56774.50;5054793;28;20029;-82
2023/06/12 04:47:31;;;;;;;11.93;6.28;;;15.20;99.90;;;-144.05;61.10;56787.25;5037719;28;20045;-81
2023/06/12 04:49:57;;;;;;;10.10;6.20;;;15.50;99.90;;;-144.05;60.56;56802.09;5037473;28;20067;-84
2023/06/12 04:52:24;;;;;;;10.88;6.57;;;15.70;99.90;;;-144.05;60.00;56780.88;5074415;28;20116;-81
2023/06/12 04:54:52;;;;;;;12.35;5.43;;;16.00;99.90;;;-144.05;59.41;56787.25;5057540;28;20025;-83
2023/06/12 04:57:18;;;;;;;10.88;5.97;;;16.20;99.90;;;-144.05;58.49;56785.13;5054447;28;20029;-82
2023/06/12 04:59:48;;;;;;;10.45;5.95;;;16.40;99.90;;;-144.05;58.83;56787.25;5038176;28;20368;-83
2023/06/12 05:02:14;;;;;;;12.80;4.93;;;16.70;99.90;;;-144.05;58.62;56793.63;5037699;28;20418;-81
2023/06/12 05:04:41;;;;;;;9.80;5.75;;;16.90;99.90;;;-144.05;57.95;56795.75;5054099;28;20463;-81
2023/06/12 05:07:16;;;;;;;6.82;5.13;;;17.10;99.90;;;-144.05;56.98;56802.09;5038312;28;20044;-81
2023/06/12 05:09:46;;;;;;;13.85;6.43;;;17.30;99.90;;;-144.05;54.97;56783.00;5055915;28;20044;-82
2023/06/12 05:12:13;;;;;;;6.43;5.03;;;17.60;99.90;;;-144.05;54.37;56814.84;5054749;28;20059;-83
2023/06/12 05:14:45;;;;;;;10.02;5.63;;;17.80;99.90;;;-144.05;52.68;56802.09;5037809;28;20040;-83
2023/06/12 05:17:11;;;;;;;7.68;4.75;;;18.10;99.90;;;-144.05;51.78;56791.50;5055643;28;20362;-83
2023/06/12 05:19:40;;;;;;;7.20;4.63;;;18.30;99.90;;;-144.05;50.79;56802.09;5054503;28;20021;-83
2023/06/12 05:22:07;;;;;;;7.47;4.80;;;18.70;99.90;;;-144.05;49.44;56810.59;5054637;28;20116;-81
2023/06/12 05:24:33;;;;;;;8.38;4.72;;;18.90;99.90;;;-144.05;49.05;56797.88;5037256;28;20037;-81
2023/06/12 05:27:01;;;;;;;8.55;5.25;;;19.20;99.90;;;-144.05;47.88;56808.47;5036819;28;20036;-83
2023/06/12 05:29:27;;;;;;;8.15;4.72;;;19.50;99.90;;;-144.05;47.35;56808.47;5037190;28;20025;-81
2023/06/12 05:31:53;;;;;;;10.40;4.63;;;19.80;99.90;;;-144.05;47.10;56819.09;5053356;28;20037;-82
2023/06/12 05:34:19;;;;;;;10.35;5.32;;;20.00;99.90;;;-144.05;46.10;56825.47;5035759;28;20032;-82
2023/06/12 05:36:45;;;;;;;8.60;4.88;;;20.20;99.90;;;-144.05;44.88;56831.84;5054349;28;20029;-81
2023/06/12 05:39:11;;;;;;;8.98;5.60;;;20.50;99.90;;;-144.05;44.42;56825.47;5037218;28;20044;-79
2023/06/12 05:41:37;;;;;;;8.95;5.35;;;20.70;99.90;;;-144.05;43.30;56844.59;5054936;28;20027;-82
2023/06/12 05:44:07;;;;;;;8.88;5.25;;;20.90;99.90;;;-144.05;43.31;56846.72;5036702;28;20128;-80
2023/06/12 05:46:34;;;;;;;9.98;5.13;;;21.20;99.90;;;-144.05;42.51;56831.84;5054792;28;20550;-82
2023/06/12 05:49:00;;;;;;;7.80;5.20;;;21.40;99.90;;;-144.05;42.65;56836.09;5036684;28;20028;-80
2023/06/12 05:51:27;;;;;;;8.65;5.43;;;21.60;99.90;;;-144.05;41.72;56857.34;5055215;28;20501;-80
2023/06/12 05:53:54;;;;;;;7.82;5.32;;;21.80;99.90;;;-144.05;41.67;56840.34;5036404;28;20083;-80
2023/06/12 05:56:24;;;;;;;11.80;6.45;;;22.00;99.90;;;-144.05;39.82;56844.59;5035433;28;20486;-80
2023/06/12 05:58:50;;;;;;;9.82;5.70;;;22.00;99.90;;;-144.05;40.08;56848.84;5035054;28;20031;-80
2023/06/12 06:01:21;;;;;;;9.98;5.60;;;22.10;99.90;;;-144.05;39.57;56846.72;5034987;28;20107;-80
2023/06/12 06:03:48;;;;;;;9.75;5.43;;;22.10;99.90;;;-144.05;39.66;56861.56;5035320;28;20044;-83
2023/06/12 06:06:19;;;;;;;12.05;5.70;;;22.30;99.90;;;-144.05;39.85;56863.69;5051694;28;20040;-80
2023/06/12 06:08:45;;;;;;;8.60;5.75;;;22.60;99.90;;;-144.05;38.80;56865.81;5052544;28;20037;-79
2023/06/12 06:11:11;;;;;;;14.05;5.65;;;22.70;99.90;;;-144.05;38.63;56857.34;5052440;28;20025;-81
2023/06/12 06:13:37;;;;;;;9.23;5.65;;;23.00;99.90;;;-144.05;38.33;56872.19;5034157;28;20029;-79
2023/06/12 06:16:03;;;;;;;7.70;5.57;;;23.30;99.90;;;-144.05;37.77;56865.81;5034583;28;20029;-82
2023/06/12 06:18:30;;;;;;;9.77;6.22;;;23.20;99.90;;;-144.05;37.09;56844.59;5052437;28;20032;-80
2023/06/12 06:20:56;;;;;;;12.10;5.65;;;23.40;99.90;;;-144.05;37.22;56918.94;5034271;28;20057;-82
2023/06/12 06:23:22;;;;;;;8.60;5.38;;;23.60;99.90;;;-144.05;36.42;56859.47;5033946;28;20040;-82
2023/06/12 06:25:49;;;;;;;9.10;5.43;;;23.80;98.40;;;-144.05;36.00;56878.56;5034586;28;20020;-81
2023/06/12 06:28:15;;;;;;;10.43;5.95;;;24.10;97.50;;;-144.05;36.08;56874.31;5052415;28;20044;-79
2023/06/12 06:30:41;;;;;;;7.55;5.68;;;24.20;98.20;;;-144.05;35.89;56904.06;5035536;28;20126;-78
2023/06/12 06:33:07;;;;;;;8.90;5.30;;;24.20;96.70;;;-144.05;35.69;56887.06;5056594;28;20029;-81
2023/06/12 06:35:34;;;;;;;7.68;5.28;;;24.20;96.20;;;-144.05;35.87;56908.31;5035265;28;20033;-80
2023/06/12 06:38:00;;;;;;;8.85;5.43;;;24.30;96.50;;;-144.05;36.37;56916.81;5042448;28;20020;-82
2023/06/12 06:40:26;;;;;;;9.27;5.78;;;24.20;97.20;;;-144.05;35.68;56891.31;5065339;28;20029;-81
2023/06/12 06:42:55;;;;;;;7.32;5.55;;;24.00;95.20;;;-144.05;37.03;56887.06;5035190;28;20424;-82
2023/06/12 06:45:21;;;;;;;9.63;5.57;;;24.20;97.10;;;-144.05;36.14;56901.94;5035224;28;20474;-82
2023/06/12 06:47:47;;;;;;;7.55;5.10;;;24.30;95.80;;;-144.05;35.67;56895.56;5054377;28;20094;-81
2023/06/12 06:50:12;;;;;;;9.80;5.55;;;24.40;95.10;;;-144.05;36.04;56901.94;5055888;28;20048;-80
2023/06/12 06:52:38;;;;;;;6.90;4.75;;;24.30;95.00;;;-144.05;35.92;56895.56;5035840;28;20099;-80
2023/06/12 06:55:05;;;;;;;8.10;5.45;;;24.50;95.20;;;-144.05;35.52;56940.16;5059865;28;20036;-79
2023/06/12 06:57:33;;;;;;;9.63;5.53;;;24.90;94.70;;;-144.05;34.71;56942.28;5057343;28;20025;-81
2023/06/12 07:00:04;;;;;;;6.18;4.63;;;25.10;93.60;;;-144.05;34.34;56931.66;5038567;28;20032;-79
2023/06/12 07:02:30;;;;;;;6.90;5.13;;;25.10;92.40;;;-144.05;34.37;56912.56;5058419;28;20047;-83
2023/06/12 07:04:56;;;;;;;5.90;5.13;;;25.40;92.30;;;-144.05;33.63;56944.41;5038606;28;20093;-82
2023/06/12 07:07:22;;;;;;;7.85;5.20;;;25.80;91.30;;;-144.05;32.71;56950.78;5038934;28;20467;-82
2023/06/12 07:09:48;;;;;;;8.80;5.68;;;26.00;89.30;;;-144.05;32.63;56963.53;5046619;28;20056;-80
2023/06/12 07:12:22;;;;;;;7.57;5.57;;;26.20;89.80;;;-144.05;32.36;56986.91;5040327;28;20029;-77
2023/06/12 07:14:48;;;;;;;6.70;4.80;;;26.40;87.80;;;-144.05;32.33;56982.66;5038524;28;20032;-82
2023/06/12 07:17:14;;;;;;;7.28;5.00;;;26.60;87.20;;;-144.05;31.70;56974.16;5058066;28;20033;-76
2023/06/12 07:19:40;;;;;;;7.63;4.63;;;26.90;84.60;;;-144.05;30.90;56993.25;5038037;28;20513;-80
2023/06/12 07:22:06;;;;;;;6.20;4.47;;;26.90;81.70;;;-144.05;31.95;56997.50;5038557;28;20423;-80
2023/06/12 07:24:32;;;;;;;6.45;5.32;;;27.20;85.20;;;-144.05;31.26;56997.50;5056786;28;20275;-79
2023/06/12 07:26:58;;;;;;;8.00;4.88;;;27.10;81.90;;;-144.05;30.90;56989.00;5040464;28;20436;-81
2023/06/12 07:29:50;;;;;;;6.70;4.75;;;27.40;80.30;;;-144.05;29.92;57018.75;5057000;28;20024;-81
2023/06/12 07:32:16;;;;;;;5.95;4.90;;;27.70;76.50;;;-144.05;30.16;57031.50;5031973;28;20052;-83
2023/06/12 07:34:42;;;;;;;7.75;5.13;;;27.50;76.10;;;-144.05;30.09;57003.88;5037232;28;20029;-82
2023/06/12 07:37:07;;;;;;;8.02;5.18;;;27.30;74.60;;;-144.05;30.43;56989.00;5053798;28;20425;-80
2023/06/12 07:39:33;;;;;;;6.07;4.47;;;27.20;75.30;;;-144.05;30.92;56980.53;5044423;28;20029;-84
2023/06/12 07:42:00;;;;;;;5.30;4.35;;;27.00;76.40;;;-144.05;30.80;56999.63;5072835;28;20029;-83
2023/06/12 07:44:26;;;;;;;8.73;4.57;;;27.30;77.00;;;-144.05;30.11;57008.13;5064210;28;20159;-82
2023/06/12 07:46:52;;;;;;;7.32;4.20;;;27.30;74.90;;;-144.05;30.49;57006.00;5060180;28;20120;-81
2023/06/12 07:49:18;;;;;;;9.90;4.65;;;27.40;75.50;;;-144.05;30.92;57008.13;5060942;28;20029;-81
2023/06/12 07:51:44;;;;;;;8.15;4.50;;;27.50;75.90;;;-144.05;30.19;57010.25;5058442;28;20029;-82
2023/06/12 07:54:12;;;;;;;7.13;4.55;;;27.50;73.80;;;-144.05;30.42;57014.50;5055148;28;20025;-81
2023/06/12 07:56:39;;;;;;;5.20;4.70;;;27.60;75.50;;;-144.05;30.40;56997.50;5036733;28;20053;-80
2023/06/12 07:59:10;;;;;;;6.97;4.70;;;27.50;74.80;;;-144.05;30.17;57048.50;5036681;28;20029;-81
2023/06/12 08:01:37;;;;;;;8.50;5.00;;;27.90;74.60;;;-144.05;30.63;57031.50;5037001;28;20478;-81
2023/06/12 08:04:11;;;;;;;9.20;5.10;;;27.80;74.90;;;-144.05;30.59;57056.97;5054740;28;20041;-81
2023/06/12 08:06:42;;;;;;;6.80;5.28;;;27.80;75.30;;;-144.05;29.64;57029.38;5054089;28;20562;-78
2023/06/12 08:09:09;;;;;;;7.70;5.13;;;28.20;72.10;;;-144.05;29.85;57078.22;5054932;28;20056;-79
2023/06/12 08:11:35;;;;;;;5.80;4.63;;;28.70;73.20;;;-144.05;29.39;57082.47;5054692;28;20029;-82
2023/06/12 08:14:01;;;;;;;6.65;4.90;;;28.90;72.70;;;-144.05;29.50;57114.34;5036647;28;20039;-80
2023/06/12 08:16:27;;;;;;;10.20;5.30;;;29.10;72.30;;;-144.05;29.14;57080.34;5037424;28;20033;-82
2023/06/12 08:18:53;;;;;;;10.95;5.28;;;28.90;70.40;;;-144.05;29.02;57071.84;5037216;28;20508;-83
2023/06/12 08:21:19;;;;;;;7.65;4.90;;;29.10;69.50;;;-144.05;28.53;57101.59;5037482;28;20036;-82
2023/06/12 08:23:45;;;;;;;5.75;4.45;;;29.40;68.70;;;-144.05;28.57;57116.47;5057014;28;20033;-80
2023/06/12 08:26:10;;;;;;;7.07;4.85;;;29.60;69.20;;;-144.05;27.87;57137.69;5060731;28;20109;-76
2023/06/12 08:28:37;;;;;;;5.53;4.35;;;29.60;66.90;;;-144.05;28.61;57116.47;5037867;28;20036;-82
2023/06/12 08:31:04;;;;;;;7.88;5.40;;;29.80;67.60;;;-144.05;28.39;57129.22;5037315;28;20139;-83
2023/06/12 08:33:31;;;;;;;9.13;4.50;;;30.00;67.60;;;-144.05;28.31;57144.06;5053929;28;20136;-81
2023/06/12 08:36:01;;;;;;;6.85;4.20;;;30.20;67.00;;;-144.05;27.65;57205.66;5036899;28;20487;-84
2023/06/12 08:38:27;;;;;;;5.68;4.88;;;30.30;66.10;;;-144.05;27.60;57154.69;5036693;28;20100;-84
2023/06/12 08:40:58;;;;;;;4.85;4.28;;;30.30;65.00;;;-144.05;27.53;57190.81;5037173;28;20029;-80
2023/06/12 08:43:28;;;;;;;6.03;4.45;;;30.00;65.10;;;-144.05;28.01;57135.56;5055211;28;20029;-80
2023/06/12 08:45:59;;;;;;;5.93;4.50;;;29.60;65.70;;;-144.05;27.13;57131.31;5055101;28;20033;-83
2023/06/12 08:48:28;;;;;;;6.53;4.90;;;29.70;62.00;;;-144.05;27.77;57118.59;5037139;28;20566;-82
2023/06/12 08:50:54;;;;;;;5.15;4.40;;;29.70;63.70;;;-144.05;27.75;57097.34;5036846;28;20605;-78
2023/06/12 08:53:22;;;;;;;7.07;4.38;;;29.80;64.10;;;-144.05;27.23;57148.31;5055436;28;20474;-82
2023/06/12 08:55:50;;;;;;;4.97;4.53;;;30.00;62.00;;;-144.05;27.12;57180.19;5055859;28;20053;-82
2023/06/12 08:58:16;;;;;;;6.85;5.05;;;30.10;61.30;;;-144.05;26.50;57169.56;5037269;28;20028;-83
2023/06/12 09:00:42;;;;;;;5.95;4.55;;;30.30;60.10;;;-144.05;26.25;57133.44;5037368;28;20025;-82
2023/06/12 09:03:08;;;;;;;5.38;4.85;;;30.60;59.80;;;-144.05;27.03;57216.28;5055062;28;20036;-84
2023/06/12 09:05:38;;;;;;;4.97;4.47;;;30.60;62.10;;;-144.05;26.45;57173.81;5054309;28;20037;-84
2023/06/12 09:08:05;;;;;;;8.30;4.88;;;30.70;59.30;;;-144.05;26.62;57182.31;5054404;28;20033;-83
2023/06/12 09:10:38;;;;;;;6.00;4.22;;;30.90;59.50;;;-144.05;26.41;57201.44;5055802;28;20029;-77
2023/06/12 09:13:10;;;;;;;6.93;4.70;;;30.80;59.00;;;-144.05;26.59;57186.56;5055327;28;20025;-83
2023/06/12 09:15:48;;;;;;;8.60;4.80;;;30.50;59.50;;;-144.05;27.18;57188.69;5037422;28;20025;-81
2023/06/12 09:18:14;;;;;;;6.03;4.90;;;30.70;60.70;;;-144.05;26.74;57212.03;5037558;28;20052;-84
2023/06/12 09:20:40;;;;;;;7.13;4.90;;;30.80;60.00;;;-144.05;26.78;57203.56;5056263;28;20020;-82
2023/06/12 09:23:06;;;;;;;7.90;5.22;;;30.70;60.10;;;-144.05;26.47;57209.91;5037750;28;20024;-84
2023/06/12 09:25:40;;;;;;;6.97;4.70;;;31.00;58.90;;;-144.05;26.41;57188.69;5037892;28;20029;-84
2023/06/12 09:28:09;;;;;;;11.10;4.88;;;30.90;58.80;;;-144.05;26.61;57161.06;5055076;28;20082;-83
2023/06/12 09:30:41;;;;;;;5.72;5.20;;;30.30;58.50;;;-144.05;27.14;57154.69;5053958;28;20025;-85
2023/06/12 09:33:08;;;;;;;6.63;4.70;;;29.80;60.00;;;-144.05;27.56;57116.47;5037121;28;20031;-86
2023/06/12 09:35:53;;;;;;;6.40;5.20;;;29.80;60.60;;;-144.05;26.76;57139.81;5037922;28;20021;-82
2023/06/12 09:38:35;;;;;;;7.78;4.68;;;30.10;59.10;;;-144.05;27.25;57131.31;5054101;28;20025;-85
2023/06/12 09:41:04;;;;;;;6.32;4.63;;;30.40;59.40;;;-144.05;26.32;57188.69;5037806;28;20033;-82
2023/06/12 09:43:31;;;;;;;5.70;5.10;;;30.70;58.80;;;-144.05;27.47;57203.56;5055832;28;20060;-80
2023/06/12 09:45:57;;;;;;;8.88;5.07;;;30.90;61.30;;;-144.05;26.50;57209.91;5036225;28;20064;-83
2023/06/12 09:48:30;;;;;;;8.27;5.47;;;30.90;58.60;;;-144.05;27.29;57188.69;5035188;28;20056;-79
2023/06/12 09:50:58;;;;;;;7.15;5.25;;;30.30;60.50;;;-144.05;27.46;57135.56;5052774;28;20037;-82
2023/06/12 09:53:25;;;;;;;5.45;4.90;;;30.20;60.20;;;-144.05;27.84;57154.69;5052692;28;20029;-80
2023/06/12 09:55:51;;;;;;;6.15;5.20;;;30.00;61.70;;;-144.05;27.63;57182.31;5052706;28;20136;-80
2023/06/12 09:58:20;;;;;;;5.43;4.93;;;30.30;61.70;;;-144.05;27.70;57171.69;5034832;28;20025;-82
2023/06/12 10:00:46;;;;;;;5.88;5.15;;;30.30;61.50;;;-144.05;27.44;57150.44;5051391;28;20021;-82
2023/06/12 10:03:17;;;;;;;8.88;5.15;;;30.40;60.30;;;-144.05;27.11;57180.19;5034705;28;20024;-81
2023/06/12 10:05:50;;;;;;;10.25;5.65;;;30.90;59.90;;;-144.05;27.02;57205.66;5053156;28;20029;-81
2023/06/12 10:08:18;;;;;;;8.93;5.50;;;31.00;60.00;;;-144.05;27.58;57139.81;5035140;28;20024;-80
2023/06/12 10:10:45;;;;;;;9.25;5.40;;;30.70;60.20;;;-144.05;27.98;57146.19;5068270;28;20028;-77